sensor_id;sensor_type;location;lat;lon;timestamp;temperature;humidity
19781;DHT22;10050;55.492;13.506;2023-11-19T00:00:42;4.80;99.90
19781;DHT22;10050;55.492;13.506;2023-11-19T00:03:08;4.80;99.90
19781;DHT22;10050;55.492;13.506;2023-11-19T00:05:34;4.80;99.90
19781;DHT22;10050;55.492;13.506;2023-11-19T00:07:59;4.80;99.90
19781;DHT22;10050;55.492;13.506;2023-11-19T00:10:25;4.80;99.90
19781;DHT22;10050;55.492;13.506;2023-11-19T00:12:51;4.80;99.90
19781;DHT22;10050;55.492;13.506;2023-11-19T00:15:17;4.80;99.90
19781;DHT22;10050;55.492;13.506;2023-11-19T00:17:47;4.80;99.90
19781;DHT22;10050;55.492;13.506;2023-11-19T00:20:17;4.90;99.90
19781;DHT22;10050;55.492;13.506;2023-11-19T00:22:43;4.90;99.90
19781;DHT22;10050;55.492;13.506;2023-11-19T00:25:09;4.90;99.90
19781;DHT22;10050;55.492;13.506;2023-11-19T00:27:38;5.00;99.90
19781;DHT22;10050;55.492;13.506;2023-11-19T00:30:05;5.00;99.90
19781;DHT22;10050;55.492;13.506;2023-11-19T00:32:34;5.00;99.90
19781;DHT22;10050;55.492;13.506;2023-11-19T00:35:05;5.00;99.90
19781;DHT22;10050;55.492;13.506;2023-11-19T00:37:31;5.00;99.90
19781;DHT22;10050;55.492;13.506;2023-11-19T00:39:56;5.00;99.90
19781;DHT22;10050;55.492;13.506;2023-11-19T00:42:23;5.00;99.90
19781;DHT22;10050;55.492;13.506;2023-11-19T00:44:50;5.00;99.90
19781;DHT22;10050;55.492;13.506;2023-11-19T00:47:16;5.10;99.90
19781;DHT22;10050;55.492;13.506;2023-11-19T00:49:41;5.10;99.90
19781;DHT22;10050;55.492;13.506;2023-11-19T00:52:08;5.10;99.90
19781;DHT22;10050;55.492;13.506;2023-11-19T00:54:34;5.10;99.90
19781;DHT22;10050;55.492;13.506;2023-11-19T00:56:59;5.20;99.90
19781;DHT22;10050;55.492;13.506;2023-11-19T00:59:27;5.20;99.90
19781;DHT22;10050;55.492;13.506;2023-11-19T01:01:54;5.20;99.90
19781;DHT22;10050;55.492;13.506;2023-11-19T01:04:19;5.20;99.90
19781;DHT22;10050;55.492;13.506;2023-11-19T01:06:45;5.20;99.90
19781;DHT22;10050;55.492;13.506;2023-11-19T01:09:11;5.20;99.90
19781;DHT22;10050;55.492;13.506;2023-11-19T01:11:36;5.20;99.90
19781;DHT22;10050;55.492;13.506;2023-11-19T01:14:02;5.20;99.90
19781;DHT22;10050;55.492;13.506;2023-11-19T01:16:28;5.20;99.90
19781;DHT22;10050;55.492;13.506;2023-11-19T01:18:53;5.30;99.90
19781;DHT22;10050;55.492;13.506;2023-11-19T01:21:19;5.20;99.90
19781;DHT22;10050;55.492;13.506;2023-11-19T01:23:45;5.20;99.90
19781;DHT22;10050;55.492;13.506;2023-11-19T01:26:11;5.20;99.90
19781;DHT22;10050;55.492;13.506;2023-11-19T01:28:38;5.20;99.90
19781;DHT22;10050;55.492;13.506;2023-11-19T01:31:11;5.20;99.90
19781;DHT22;10050;55.492;13.506;2023-11-19T01:33:36;5.20;99.90
19781;DHT22;10050;55.492;13.506;2023-11-19T01:36:03;5.20;99.90
19781;DHT22;10050;55.492;13.506;2023-11-19T01:38:29;5.20;99.90
19781;DHT22;10050;55.492;13.506;2023-11-19T01:40:57;5.20;99.90
19781;DHT22;10050;55.492;13.506;2023-11-19T01:46:00;5.30;99.90
19781;DHT22;10050;55.492;13.506;2023-11-19T01:48:26;5.30;99.90
19781;DHT22;10050;55.492;13.506;2023-11-19T01:50:53;5.40;99.90
19781;DHT22;10050;55.492;13.506;2023-11-19T01:53:19;5.40;99.90
19781;DHT22;10050;55.492;13.506;2023-11-19T01:55:46;5.40;99.90
19781;DHT22;10050;55.492;13.506;2023-11-19T01:58:13;5.40;99.90
19781;DHT22;10050;55.492;13.506;2023-11-19T02:00:39;5.40;99.90
19781;DHT22;10050;55.492;13.506;2023-11-19T02:03:06;5.40;99.90
19781;DHT22;10050;55.492;13.506;2023-11-19T02:05:34;5.40;99.90
19781;DHT22;10050;55.492;13.506;2023-11-19T02:08:00;5.40;99.90
19781;DHT22;10050;55.492;13.506;2023-11-19T02:10:26;5.40;99.90
19781;DHT22;10050;55.492;13.506;2023-11-19T02:12:52;5.40;99.90
19781;DHT22;10050;55.492;13.506;2023-11-19T02:15:18;5.40;99.90
19781;DHT22;10050;55.492;13.506;2023-11-19T02:17:53;5.40;99.90
19781;DHT22;10050;55.492;13.506;2023-11-19T02:20:18;5.40;99.90
19781;DHT22;10050;55.492;13.506;2023-11-19T02:22:46;5.40;99.90
19781;DHT22;10050;55.492;13.506;2023-11-19T02:25:30;5.40;99.90
19781;DHT22;10050;55.492;13.506;2023-11-19T02:28:01;5.40;99.90
19781;DHT22;10050;55.492;13.506;2023-11-19T02:30:28;5.40;99.90
19781;DHT22;10050;55.492;13.506;2023-11-19T02:32:55;5.40;99.90
19781;DHT22;10050;55.492;13.506;2023-11-19T02:35:27;5.40;99.90
19781;DHT22;10050;55.492;13.506;2023-11-19T02:37:57;5.40;99.90
19781;DHT22;10050;55.492;13.506;2023-11-19T02:40:23;5.40;99.90
19781;DHT22;10050;55.492;13.506;2023-11-19T02:42:54;5.40;99.90
19781;DHT22;10050;55.492;13.506;2023-11-19T02:45:22;5.40;99.90
19781;DHT22;10050;55.492;13.506;2023-11-19T02:47:52;5.50;99.90
19781;DHT22;10050;55.492;13.506;2023-11-19T02:50:19;5.50;99.90
19781;DHT22;10050;55.492;13.506;2023-11-19T02:52:51;5.50;99.90
19781;DHT22;10050;55.492;13.506;2023-11-19T02:55:18;5.50;99.90
19781;DHT22;10050;55.492;13.506;2023-11-19T02:57:45;5.50;99.90
19781;DHT22;10050;55.492;13.506;2023-11-19T03:00:15;5.40;99.90
19781;DHT22;10050;55.492;13.506;2023-11-19T03:02:41;5.40;99.90
19781;DHT22;10050;55.492;13.506;2023-11-19T03:05:15;5.40;99.90
19781;DHT22;10050;55.492;13.506;2023-11-19T03:07:44;5.40;99.90
19781;DHT22;10050;55.492;13.506;2023-11-19T03:10:11;5.40;99.90
19781;DHT22;10050;55.492;13.506;2023-11-19T03:12:40;5.40;99.90
19781;DHT22;10050;55.492;13.506;2023-11-19T03:15:06;5.40;99.90
19781;DHT22;10050;55.492;13.506;2023-11-19T03:17:33;5.40;99.90
19781;DHT22;10050;55.492;13.506;2023-11-19T03:20:00;5.40;99.90
19781;DHT22;10050;55.492;13.506;2023-11-19T03:22:26;5.40;99.90
19781;DHT22;10050;55.492;13.506;2023-11-19T03:24:52;5.40;99.90
19781;DHT22;10050;55.492;13.506;2023-11-19T03:27:17;5.40;99.90
19781;DHT22;10050;55.492;13.506;2023-11-19T03:29:43;5.50;99.90
19781;DHT22;10050;55.492;13.506;2023-11-19T03:32:09;5.50;99.90
19781;DHT22;10050;55.492;13.506;2023-11-19T03:34:34;5.50;99.90
19781;DHT22;10050;55.492;13.506;2023-11-19T03:37:00;5.50;99.90
19781;DHT22;10050;55.492;13.506;2023-11-19T03:39:25;5.50;99.90
19781;DHT22;10050;55.492;13.506;2023-11-19T03:41:52;5.50;99.90
19781;DHT22;10050;55.492;13.506;2023-11-19T03:44:18;5.50;99.90
19781;DHT22;10050;55.492;13.506;2023-11-19T03:46:44;5.40;99.90
19781;DHT22;10050;55.492;13.506;2023-11-19T03:49:11;5.50;99.90
19781;DHT22;10050;55.492;13.506;2023-11-19T03:51:37;5.50;99.90
19781;DHT22;10050;55.492;13.506;2023-11-19T03:54:03;5.40;99.90
19781;DHT22;10050;55.492;13.506;2023-11-19T03:56:28;5.40;99.90
19781;DHT22;10050;55.492;13.506;2023-11-19T03:58:56;5.40;99.90
19781;DHT22;10050;55.492;13.506;2023-11-19T04:01:22;5.40;99.90
19781;DHT22;10050;55.492;13.506;2023-11-19T04:03:47;5.40;99.90
19781;DHT22;10050;55.492;13.506;2023-11-19T04:06:13;5.40;99.90
19781;DHT22;10050;55.492;13.506;2023-11-19T04:08:39;5.40;99.90
19781;DHT22;10050;55.492;13.506;2023-11-19T04:11:05;5.40;99.90
19781;DHT22;10050;55.492;13.506;2023-11-19T04:13:31;5.40;99.90
19781;DHT22;10050;55.492;13.506;2023-11-19T04:15:56;5.40;99.90
19781;DHT22;10050;55.492;13.506;2023-11-19T04:18:22;5.40;99.90
19781;DHT22;10050;55.492;13.506;2023-11-19T04:20:48;5.40;99.90
19781;DHT22;10050;55.492;13.506;2023-11-19T04:23:14;5.40;99.90
19781;DHT22;10050;55.492;13.506;2023-11-19T04:25:39;5.40;99.90
19781;DHT22;10050;55.492;13.506;2023-11-19T04:28:05;5.40;99.90
19781;DHT22;10050;55.492;13.506;2023-11-19T04:30:30;5.30;99.90
19781;DHT22;10050;55.492;13.506;2023-11-19T04:32:57;5.30;99.90
19781;DHT22;10050;55.492;13.506;2023-11-19T04:35:23;5.30;99.90
19781;DHT22;10050;55.492;13.506;2023-11-19T04:37:49;5.30;99.90
19781;DHT22;10050;55.492;13.506;2023-11-19T04:40:14;5.30;99.90
19781;DHT22;10050;55.492;13.506;2023-11-19T04:42:40;5.30;99.90
19781;DHT22;10050;55.492;13.506;2023-11-19T04:45:06;5.30;99.90
19781;DHT22;10050;55.492;13.506;2023-11-19T04:47:33;5.30;99.90
19781;DHT22;10050;55.492;13.506;2023-11-19T04:49:59;5.20;99.90
19781;DHT22;10050;55.492;13.506;2023-11-19T04:52:25;5.20;99.90
19781;DHT22;10050;55.492;13.506;2023-11-19T04:54:50;5.30;99.90
19781;DHT22;10050;55.492;13.506;2023-11-19T04:57:17;5.20;99.90
19781;DHT22;10050;55.492;13.506;2023-11-19T04:59:42;5.20;99.90
19781;DHT22;10050;55.492;13.506;2023-11-19T05:02:09;5.20;99.90
19781;DHT22;10050;55.492;13.506;2023-11-19T05:04:35;5.20;99.90
19781;DHT22;10050;55.492;13.506;2023-11-19T05:07:00;5.20;99.90
19781;DHT22;10050;55.492;13.506;2023-11-19T05:09:26;5.20;99.90
19781;DHT22;10050;55.492;13.506;2023-11-19T05:11:52;5.30;99.90
19781;DHT22;10050;55.492;13.506;2023-11-19T05:14:18;5.20;99.90
19781;DHT22;10050;55.492;13.506;2023-11-19T05:16:47;5.20;99.90
19781;DHT22;10050;55.492;13.506;2023-11-19T05:19:13;5.30;99.90
19781;DHT22;10050;55.492;13.506;2023-11-19T05:21:42;5.30;99.90
19781;DHT22;10050;55.492;13.506;2023-11-19T05:24:08;5.30;99.90
19781;DHT22;10050;55.492;13.506;2023-11-19T05:26:34;5.30;99.90
19781;DHT22;10050;55.492;13.506;2023-11-19T05:28:59;5.30;99.90
19781;DHT22;10050;55.492;13.506;2023-11-19T05:31:25;5.30;99.90
19781;DHT22;10050;55.492;13.506;2023-11-19T05:33:50;5.30;99.90
19781;DHT22;10050;55.492;13.506;2023-11-19T05:36:16;5.30;99.90
19781;DHT22;10050;55.492;13.506;2023-11-19T05:38:42;5.20;99.90
19781;DHT22;10050;55.492;13.506;2023-11-19T05:41:08;5.30;99.90
19781;DHT22;10050;55.492;13.506;2023-11-19T05:43:34;5.30;99.90
19781;DHT22;10050;55.492;13.506;2023-11-19T05:45:59;5.30;99.90
19781;DHT22;10050;55.492;13.506;2023-11-19T05:48:27;5.30;99.90
19781;DHT22;10050;55.492;13.506;2023-11-19T05:50:53;5.30;99.90
19781;DHT22;10050;55.492;13.506;2023-11-19T05:53:19;5.30;99.90
19781;DHT22;10050;55.492;13.506;2023-11-19T05:55:45;5.30;99.90
19781;DHT22;10050;55.492;13.506;2023-11-19T05:58:27;5.30;99.90
19781;DHT22;10050;55.492;13.506;2023-11-19T06:00:57;5.30;99.90
19781;DHT22;10050;55.492;13.506;2023-11-19T06:03:23;5.30;99.90
19781;DHT22;10050;55.492;13.506;2023-11-19T06:05:49;5.40;99.90
19781;DHT22;10050;55.492;13.506;2023-11-19T06:08:15;5.30;99.90
19781;DHT22;10050;55.492;13.506;2023-11-19T06:10:42;5.40;99.90
19781;DHT22;10050;55.492;13.506;2023-11-19T06:13:09;5.40;99.90
19781;DHT22;10050;55.492;13.506;2023-11-19T06:15:36;5.40;99.90
19781;DHT22;10050;55.492;13.506;2023-11-19T06:18:02;5.40;99.90
19781;DHT22;10050;55.492;13.506;2023-11-19T06:20:33;5.40;99.90
19781;DHT22;10050;55.492;13.506;2023-11-19T06:22:59;5.40;99.90
19781;DHT22;10050;55.492;13.506;2023-11-19T06:25:25;5.40;99.90
19781;DHT22;10050;55.492;13.506;2023-11-19T06:27:51;5.40;99.90
19781;DHT22;10050;55.492;13.506;2023-11-19T06:30:18;5.50;99.90
19781;DHT22;10050;55.492;13.506;2023-11-19T06:32:44;5.40;99.90
19781;DHT22;10050;55.492;13.506;2023-11-19T06:35:10;5.40;99.90
19781;DHT22;10050;55.492;13.506;2023-11-19T06:37:39;5.40;99.90
19781;DHT22;10050;55.492;13.506;2023-11-19T06:40:06;5.50;99.90
19781;DHT22;10050;55.492;13.506;2023-11-19T06:42:32;5.50;99.90
19781;DHT22;10050;55.492;13.506;2023-11-19T06:45:01;5.50;99.90
19781;DHT22;10050;55.492;13.506;2023-11-19T06:47:28;5.50;99.90
19781;DHT22;10050;55.492;13.506;2023-11-19T06:49:54;5.50;99.90
19781;DHT22;10050;55.492;13.506;2023-11-19T06:52:21;5.50;99.90
19781;DHT22;10050;55.492;13.506;2023-11-19T06:54:47;5.40;99.90
19781;DHT22;10050;55.492;13.506;2023-11-19T06:57:13;5.50;99.90
19781;DHT22;10050;55.492;13.506;2023-11-19T06:59:39;5.40;99.90
19781;DHT22;10050;55.492;13.506;2023-11-19T07:02:06;5.40;99.90
19781;DHT22;10050;55.492;13.506;2023-11-19T07:04:32;5.40;99.90
19781;DHT22;10050;55.492;13.506;2023-11-19T07:06:59;5.40;99.90
19781;DHT22;10050;55.492;13.506;2023-11-19T07:09:25;5.40;99.90
19781;DHT22;10050;55.492;13.506;2023-11-19T07:11:51;5.40;99.90
19781;DHT22;10050;55.492;13.506;2023-11-19T07:14:20;5.40;99.90
19781;DHT22;10050;55.492;13.506;2023-11-19T07:16:46;5.40;99.90
19781;DHT22;10050;55.492;13.506;2023-11-19T07:19:12;5.40;99.90
19781;DHT22;10050;55.492;13.506;2023-11-19T07:21:41;5.40;99.90
19781;DHT22;10050;55.492;13.506;2023-11-19T07:24:10;5.40;99.90
19781;DHT22;10050;55.492;13.506;2023-11-19T07:26:36;5.40;99.90
19781;DHT22;10050;55.492;13.506;2023-11-19T07:29:05;5.30;99.90
19781;DHT22;10050;55.492;13.506;2023-11-19T07:31:32;5.40;99.90
19781;DHT22;10050;55.492;13.506;2023-11-19T07:33:58;5.40;99.90
19781;DHT22;10050;55.492;13.506;2023-11-19T07:36:26;5.40;99.90
19781;DHT22;10050;55.492;13.506;2023-11-19T07:38:52;5.40;99.90
19781;DHT22;10050;55.492;13.506;2023-11-19T07:41:18;5.40;99.90
19781;DHT22;10050;55.492;13.506;2023-11-19T07:43:45;5.40;99.90
19781;DHT22;10050;55.492;13.506;2023-11-19T07:46:12;5.40;99.90
19781;DHT22;10050;55.492;13.506;2023-11-19T07:48:41;5.40;99.90
19781;DHT22;10050;55.492;13.506;2023-11-19T07:51:08;5.40;99.90
19781;DHT22;10050;55.492;13.506;2023-11-19T07:53:33;5.40;99.90
19781;DHT22;10050;55.492;13.506;2023-11-19T07:56:00;5.40;99.90
19781;DHT22;10050;55.492;13.506;2023-11-19T07:58:25;5.30;99.90
19781;DHT22;10050;55.492;13.506;2023-11-19T08:00:51;5.30;99.90
19781;DHT22;10050;55.492;13.506;2023-11-19T08:03:17;5.30;99.90
19781;DHT22;10050;55.492;13.506;2023-11-19T08:05:44;5.30;99.90
19781;DHT22;10050;55.492;13.506;2023-11-19T08:08:10;5.30;99.90
19781;DHT22;10050;55.492;13.506;2023-11-19T08:10:36;5.20;99.90
19781;DHT22;10050;55.492;13.506;2023-11-19T08:13:05;5.20;99.90
19781;DHT22;10050;55.492;13.506;2023-11-19T08:15:31;5.20;99.90
19781;DHT22;10050;55.492;13.506;2023-11-19T08:17:57;5.20;99.90
19781;DHT22;10050;55.492;13.506;2023-11-19T08:20:22;5.20;99.90
19781;DHT22;10050;55.492;13.506;2023-11-19T08:22:49;5.20;99.90
19781;DHT22;10050;55.492;13.506;2023-11-19T08:25:14;5.10;99.90
19781;DHT22;10050;55.492;13.506;2023-11-19T08:27:40;5.10;99.90
19781;DHT22;10050;55.492;13.506;2023-11-19T08:30:06;5.10;99.90
19781;DHT22;10050;55.492;13.506;2023-11-19T08:32:32;5.10;99.90
19781;DHT22;10050;55.492;13.506;2023-11-19T08:34:58;5.10;99.90
19781;DHT22;10050;55.492;13.506;2023-11-19T08:37:27;5.10;99.90
19781;DHT22;10050;55.492;13.506;2023-11-19T08:39:53;5.10;99.90
19781;DHT22;10050;55.492;13.506;2023-11-19T08:42:19;5.10;99.90
19781;DHT22;10050;55.492;13.506;2023-11-19T08:44:49;5.00;99.90
19781;DHT22;10050;55.492;13.506;2023-11-19T08:47:19;5.00;99.90
19781;DHT22;10050;55.492;13.506;2023-11-19T08:49:44;5.00;99.90
19781;DHT22;10050;55.492;13.506;2023-11-19T08:52:10;5.00;99.90
19781;DHT22;10050;55.492;13.506;2023-11-19T08:54:36;5.00;99.90
19781;DHT22;10050;55.492;13.506;2023-11-19T08:57:03;5.00;99.90
19781;DHT22;10050;55.492;13.506;2023-11-19T08:59:29;5.00;99.90
19781;DHT22;10050;55.492;13.506;2023-11-19T09:01:55;5.00;99.90
19781;DHT22;10050;55.492;13.506;2023-11-19T09:04:21;5.00;99.90
19781;DHT22;10050;55.492;13.506;2023-11-19T09:06:51;5.00;99.90
19781;DHT22;10050;55.492;13.506;2023-11-19T09:09:19;5.00;99.90
19781;DHT22;10050;55.492;13.506;2023-11-19T09:11:46;5.00;99.90
19781;DHT22;10050;55.492;13.506;2023-11-19T09:14:12;5.00;99.90
19781;DHT22;10050;55.492;13.506;2023-11-19T09:16:37;4.90;99.90
19781;DHT22;10050;55.492;13.506;2023-11-19T09:19:05;4.90;99.90
19781;DHT22;10050;55.492;13.506;2023-11-19T09:21:31;4.90;99.90
19781;DHT22;10050;55.492;13.506;2023-11-19T09:23:56;4.90;99.90
19781;DHT22;10050;55.492;13.506;2023-11-19T09:26:22;5.00;99.90
19781;DHT22;10050;55.492;13.506;2023-11-19T09:28:51;4.90;99.90
19781;DHT22;10050;55.492;13.506;2023-11-19T09:31:24;4.90;99.90
19781;DHT22;10050;55.492;13.506;2023-11-19T09:33:53;5.00;99.90
19781;DHT22;10050;55.492;13.506;2023-11-19T09:36:19;4.90;99.90
19781;DHT22;10050;55.492;13.506;2023-11-19T09:38:44;4.90;99.90
19781;DHT22;10050;55.492;13.506;2023-11-19T09:41:10;4.90;99.90
19781;DHT22;10050;55.492;13.506;2023-11-19T09:43:42;4.80;99.90
19781;DHT22;10050;55.492;13.506;2023-11-19T09:46:15;4.80;99.90
19781;DHT22;10050;55.492;13.506;2023-11-19T09:48:42;4.80;99.90
19781;DHT22;10050;55.492;13.506;2023-11-19T09:51:09;4.70;99.90
19781;DHT22;10050;55.492;13.506;2023-11-19T09:53:36;4.70;99.90
19781;DHT22;10050;55.492;13.506;2023-11-19T09:56:03;4.70;99.90
19781;DHT22;10050;55.492;13.506;2023-11-19T09:58:30;4.70;99.90
19781;DHT22;10050;55.492;13.506;2023-11-19T10:00:59;4.60;99.90
19781;DHT22;10050;55.492;13.506;2023-11-19T10:03:26;4.60;99.90
19781;DHT22;10050;55.492;13.506;2023-11-19T10:05:55;4.60;99.90
19781;DHT22;10050;55.492;13.506;2023-11-19T10:08:22;4.60;99.90
19781;DHT22;10050;55.492;13.506;2023-11-19T10:10:51;4.60;99.90
19781;DHT22;10050;55.492;13.506;2023-11-19T10:13:17;4.60;99.90
19781;DHT22;10050;55.492;13.506;2023-11-19T10:15:45;4.50;99.90
19781;DHT22;10050;55.492;13.506;2023-11-19T10:18:14;4.50;99.90
19781;DHT22;10050;55.492;13.506;2023-11-19T10:20:41;4.50;99.90
19781;DHT22;10050;55.492;13.506;2023-11-19T10:23:07;4.60;99.90
19781;DHT22;10050;55.492;13.506;2023-11-19T10:25:33;4.50;99.90
19781;DHT22;10050;55.492;13.506;2023-11-19T10:27:59;4.50;99.90
19781;DHT22;10050;55.492;13.506;2023-11-19T10:30:27;4.50;99.90
19781;DHT22;10050;55.492;13.506;2023-11-19T10:33:10;4.50;99.90
19781;DHT22;10050;55.492;13.506;2023-11-19T10:35:54;4.50;99.90
19781;DHT22;10050;55.492;13.506;2023-11-19T10:38:22;4.50;99.90
19781;DHT22;10050;55.492;13.506;2023-11-19T10:40:51;4.50;99.90
19781;DHT22;10050;55.492;13.506;2023-11-19T10:43:20;4.50;99.90
19781;DHT22;10050;55.492;13.506;2023-11-19T10:45:51;4.40;99.90
19781;DHT22;10050;55.492;13.506;2023-11-19T10:48:17;4.40;99.90
19781;DHT22;10050;55.492;13.506;2023-11-19T10:50:44;4.40;99.90
19781;DHT22;10050;55.492;13.506;2023-11-19T10:53:11;4.50;99.90
19781;DHT22;10050;55.492;13.506;2023-11-19T10:55:47;4.40;99.90
19781;DHT22;10050;55.492;13.506;2023-11-19T10:58:16;4.50;99.90
19781;DHT22;10050;55.492;13.506;2023-11-19T11:00:57;4.40;99.90
19781;DHT22;10050;55.492;13.506;2023-11-19T11:03:31;4.40;99.90
19781;DHT22;10050;55.492;13.506;2023-11-19T11:06:03;4.40;99.90
19781;DHT22;10050;55.492;13.506;2023-11-19T11:08:30;4.40;99.90
19781;DHT22;10050;55.492;13.506;2023-11-19T11:10:56;4.50;99.90
19781;DHT22;10050;55.492;13.506;2023-11-19T11:13:24;4.40;99.90
19781;DHT22;10050;55.492;13.506;2023-11-19T11:15:50;4.40;99.90
19781;DHT22;10050;55.492;13.506;2023-11-19T11:18:19;4.40;99.90
19781;DHT22;10050;55.492;13.506;2023-11-19T11:20:45;4.40;99.90
19781;DHT22;10050;55.492;13.506;2023-11-19T11:31:48;4.50;99.90
19781;DHT22;10050;55.492;13.506;2023-11-19T11:37:16;4.50;99.90
19781;DHT22;10050;55.492;13.506;2023-11-19T11:39:46;4.40;99.90
19781;DHT22;10050;55.492;13.506;2023-11-19T11:45:11;4.40;99.90
19781;DHT22;10050;55.492;13.506;2023-11-19T11:50:20;4.40;99.90
19781;DHT22;10050;55.492;13.506;2023-11-19T11:55:51;4.40;99.90
19781;DHT22;10050;55.492;13.506;2023-11-19T11:58:30;4.40;99.90
19781;DHT22;10050;55.492;13.506;2023-11-19T12:00:59;4.40;99.90
19781;DHT22;10050;55.492;13.506;2023-11-19T12:03:28;4.40;99.90
19781;DHT22;10050;55.492;13.506;2023-11-19T12:05:53;4.40;99.90
19781;DHT22;10050;55.492;13.506;2023-11-19T12:08:20;4.40;99.90
19781;DHT22;10050;55.492;13.506;2023-11-19T12:10:54;4.40;99.90
19781;DHT22;10050;55.492;13.506;2023-11-19T12:13:24;4.40;99.90
19781;DHT22;10050;55.492;13.506;2023-11-19T12:18:27;4.40;99.90
19781;DHT22;10050;55.492;13.506;2023-11-19T12:20:54;4.40;99.90
19781;DHT22;10050;55.492;13.506;2023-11-19T12:23:19;4.40;99.90
19781;DHT22;10050;55.492;13.506;2023-11-19T12:25:45;4.40;99.90
19781;DHT22;10050;55.492;13.506;2023-11-19T12:28:15;4.40;99.90
19781;DHT22;10050;55.492;13.506;2023-11-19T12:30:44;4.50;99.90
19781;DHT22;10050;55.492;13.506;2023-11-19T12:33:10;4.50;99.90
19781;DHT22;10050;55.492;13.506;2023-11-19T12:35:40;4.50;99.90
19781;DHT22;10050;55.492;13.506;2023-11-19T12:38:06;4.50;99.90
19781;DHT22;10050;55.492;13.506;2023-11-19T12:40:32;4.50;99.90
19781;DHT22;10050;55.492;13.506;2023-11-19T12:42:57;4.50;99.90
19781;DHT22;10050;55.492;13.506;2023-11-19T12:45:24;4.50;99.90
19781;DHT22;10050;55.492;13.506;2023-11-19T12:48:07;4.50;99.90
19781;DHT22;10050;55.492;13.506;2023-11-19T12:51:10;4.50;99.90
19781;DHT22;10050;55.492;13.506;2023-11-19T12:53:48;4.50;99.90
19781;DHT22;10050;55.492;13.506;2023-11-19T12:56:15;4.50;99.90
19781;DHT22;10050;55.492;13.506;2023-11-19T12:58:41;4.50;99.90
19781;DHT22;10050;55.492;13.506;2023-11-19T13:01:08;4.50;99.90
19781;DHT22;10050;55.492;13.506;2023-11-19T13:03:38;4.50;99.90
19781;DHT22;10050;55.492;13.506;2023-11-19T13:06:09;4.50;99.90
19781;DHT22;10050;55.492;13.506;2023-11-19T13:08:45;4.50;99.90
19781;DHT22;10050;55.492;13.506;2023-11-19T13:11:12;4.50;99.90
19781;DHT22;10050;55.492;13.506;2023-11-19T13:16:23;4.50;99.90
19781;DHT22;10050;55.492;13.506;2023-11-19T13:18:51;4.50;99.90
19781;DHT22;10050;55.492;13.506;2023-11-19T13:21:17;4.50;99.90
19781;DHT22;10050;55.492;13.506;2023-11-19T13:23:43;4.50;99.90
19781;DHT22;10050;55.492;13.506;2023-11-19T13:26:10;4.50;99.90
19781;DHT22;10050;55.492;13.506;2023-11-19T13:28:38;4.50;99.90
19781;DHT22;10050;55.492;13.506;2023-11-19T13:31:04;4.50;99.90
19781;DHT22;10050;55.492;13.506;2023-11-19T13:33:30;4.50;99.90
19781;DHT22;10050;55.492;13.506;2023-11-19T13:35:56;4.50;99.90
19781;DHT22;10050;55.492;13.506;2023-11-19T13:38:22;4.50;99.90
19781;DHT22;10050;55.492;13.506;2023-11-19T13:40:51;4.60;99.90
19781;DHT22;10050;55.492;13.506;2023-11-19T13:43:17;4.60;99.90
19781;DHT22;10050;55.492;13.506;2023-11-19T13:45:42;4.60;99.90
19781;DHT22;10050;55.492;13.506;2023-11-19T13:48:08;4.60;99.90
19781;DHT22;10050;55.492;13.506;2023-11-19T13:50:34;4.60;99.90
19781;DHT22;10050;55.492;13.506;2023-11-19T13:53:00;4.60;99.90
19781;DHT22;10050;55.492;13.506;2023-11-19T13:55:26;4.60;99.90
19781;DHT22;10050;55.492;13.506;2023-11-19T13:57:54;4.60;99.90
19781;DHT22;10050;55.492;13.506;2023-11-19T14:00:20;4.60;99.90
19781;DHT22;10050;55.492;13.506;2023-11-19T14:02:48;4.60;99.90
19781;DHT22;10050;55.492;13.506;2023-11-19T14:05:15;4.70;99.90
19781;DHT22;10050;55.492;13.506;2023-11-19T14:07:43;4.70;99.90
19781;DHT22;10050;55.492;13.506;2023-11-19T14:10:09;4.70;99.90
19781;DHT22;10050;55.492;13.506;2023-11-19T14:12:40;4.60;99.90
19781;DHT22;10050;55.492;13.506;2023-11-19T14:15:06;4.70;99.90
19781;DHT22;10050;55.492;13.506;2023-11-19T14:17:33;4.70;99.90
19781;DHT22;10050;55.492;13.506;2023-11-19T14:19:59;4.70;99.90
19781;DHT22;10050;55.492;13.506;2023-11-19T14:22:25;4.70;99.90
19781;DHT22;10050;55.492;13.506;2023-11-19T14:24:51;4.70;99.90
19781;DHT22;10050;55.492;13.506;2023-11-19T14:27:16;4.70;99.90
19781;DHT22;10050;55.492;13.506;2023-11-19T14:29:43;4.70;99.90
19781;DHT22;10050;55.492;13.506;2023-11-19T14:32:10;4.70;99.90
19781;DHT22;10050;55.492;13.506;2023-11-19T14:34:36;4.70;99.90
19781;DHT22;10050;55.492;13.506;2023-11-19T14:37:02;4.70;99.90
19781;DHT22;10050;55.492;13.506;2023-11-19T14:39:27;4.70;99.90
19781;DHT22;10050;55.492;13.506;2023-11-19T14:41:56;4.70;99.90
19781;DHT22;10050;55.492;13.506;2023-11-19T14:44:26;4.70;99.90
19781;DHT22;10050;55.492;13.506;2023-11-19T14:46:52;4.70;99.90
19781;DHT22;10050;55.492;13.506;2023-11-19T14:49:18;4.70;99.90
19781;DHT22;10050;55.492;13.506;2023-11-19T14:51:44;4.70;99.90
19781;DHT22;10050;55.492;13.506;2023-11-19T14:54:09;4.70;99.90
19781;DHT22;10050;55.492;13.506;2023-11-19T14:56:35;4.70;99.90
19781;DHT22;10050;55.492;13.506;2023-11-19T14:59:01;4.70;99.90
19781;DHT22;10050;55.492;13.506;2023-11-19T15:01:30;4.70;99.90
19781;DHT22;10050;55.492;13.506;2023-11-19T15:03:56;4.70;99.90
19781;DHT22;10050;55.492;13.506;2023-11-19T15:06:25;4.70;99.90
19781;DHT22;10050;55.492;13.506;2023-11-19T15:08:56;4.60;99.90
19781;DHT22;10050;55.492;13.506;2023-11-19T15:11:22;4.60;99.90
19781;DHT22;10050;55.492;13.506;2023-11-19T15:13:50;4.60;99.90
19781;DHT22;10050;55.492;13.506;2023-11-19T15:16:16;4.60;99.90
19781;DHT22;10050;55.492;13.506;2023-11-19T15:18:48;4.60;99.90
19781;DHT22;10050;55.492;13.506;2023-11-19T15:21:13;4.70;99.90
19781;DHT22;10050;55.492;13.506;2023-11-19T15:23:40;4.60;99.90
19781;DHT22;10050;55.492;13.506;2023-11-19T15:26:06;4.60;99.90
19781;DHT22;10050;55.492;13.506;2023-11-19T15:28:33;4.50;99.90
19781;DHT22;10050;55.492;13.506;2023-11-19T15:30:59;4.50;99.90
19781;DHT22;10050;55.492;13.506;2023-11-19T15:33:24;4.40;99.90
19781;DHT22;10050;55.492;13.506;2023-11-19T15:35:50;4.40;99.90
19781;DHT22;10050;55.492;13.506;2023-11-19T15:38:16;4.40;99.90
19781;DHT22;10050;55.492;13.506;2023-11-19T15:40:41;4.30;99.90
19781;DHT22;10050;55.492;13.506;2023-11-19T15:43:08;4.30;99.90
19781;DHT22;10050;55.492;13.506;2023-11-19T15:45:34;4.30;99.90
19781;DHT22;10050;55.492;13.506;2023-11-19T15:48:03;4.30;99.90
19781;DHT22;10050;55.492;13.506;2023-11-19T15:50:29;4.30;99.90
19781;DHT22;10050;55.492;13.506;2023-11-19T15:52:55;4.30;99.90
19781;DHT22;10050;55.492;13.506;2023-11-19T15:55:20;4.30;99.90
19781;DHT22;10050;55.492;13.506;2023-11-19T15:57:46;4.20;99.90